sensor_id;sensor_type;location;lat;lon;timestamp;P1;durP1;ratioP1;P2;durP2;ratioP2
56519;SDS011;42420;53.586;10.052;2023-05-14T00:02:43;6.47;;;4.00;;
56519;SDS011;42420;53.586;10.052;2023-05-14T00:07:40;7.00;;;3.85;;
56519;SDS011;42420;53.586;10.052;2023-05-14T00:12:36;9.65;;;4.22;;
56519;SDS011;42420;53.586;10.052;2023-05-14T00:17:33;8.30;;;3.70;;
56519;SDS011;42420;53.586;10.052;2023-05-14T00:22:29;7.18;;;3.70;;
56519;SDS011;42420;53.586;10.052;2023-05-14T00:32:22;8.10;;;4.00;;
56519;SDS011;42420;53.586;10.052;2023-05-14T00:37:19;7.47;;;4.00;;
56519;SDS011;42420;53.586;10.052;2023-05-14T00:42:15;8.82;;;4.10;;
56519;SDS011;42420;53.586;10.052;2023-05-14T00:47:14;7.90;;;4.00;;
56519;SDS011;42420;53.586;10.052;2023-05-14T00:52:11;8.10;;;4.15;;
56519;SDS011;42420;53.586;10.052;2023-05-14T00:57:08;9.00;;;4.35;;
56519;SDS011;42420;53.586;10.052;2023-05-14T01:02:07;8.90;;;4.45;;
56519;SDS011;42420;53.586;10.052;2023-05-14T01:07:08;7.07;;;4.15;;
56519;SDS011;42420;53.586;10.052;2023-05-14T01:17:45;6.70;;;4.00;;
56519;SDS011;42420;53.586;10.052;2023-05-14T01:22:44;10.23;;;4.28;;
56519;SDS011;42420;53.586;10.052;2023-05-14T01:27:49;6.10;;;3.78;;
56519;SDS011;42420;53.586;10.052;2023-05-14T01:32:47;10.23;;;4.55;;
56519;SDS011;42420;53.586;10.052;2023-05-14T01:37:46;7.82;;;3.85;;
56519;SDS011;42420;53.586;10.052;2023-05-14T01:42:44;7.97;;;3.95;;
56519;SDS011;42420;53.586;10.052;2023-05-14T01:47:40;8.52;;;3.67;;
56519;SDS011;42420;53.586;10.052;2023-05-14T01:52:37;6.82;;;4.07;;
56519;SDS011;42420;53.586;10.052;2023-05-14T01:57:33;12.15;;;4.00;;
56519;SDS011;42420;53.586;10.052;2023-05-14T02:02:30;7.03;;;4.03;;
56519;SDS011;42420;53.586;10.052;2023-05-14T02:07:26;6.72;;;3.70;;
56519;SDS011;42420;53.586;10.052;2023-05-14T02:12:23;7.38;;;3.63;;
56519;SDS011;42420;53.586;10.052;2023-05-14T02:17:19;8.57;;;4.18;;
56519;SDS011;42420;53.586;10.052;2023-05-14T02:22:16;8.30;;;3.60;;
56519;SDS011;42420;53.586;10.052;2023-05-14T02:27:12;6.53;;;3.58;;
56519;SDS011;42420;53.586;10.052;2023-05-14T02:32:09;9.23;;;4.32;;
56519;SDS011;42420;53.586;10.052;2023-05-14T02:37:05;6.65;;;3.55;;
56519;SDS011;42420;53.586;10.052;2023-05-14T02:42:02;7.32;;;3.30;;
56519;SDS011;42420;53.586;10.052;2023-05-14T02:46:58;8.73;;;3.63;;
56519;SDS011;42420;53.586;10.052;2023-05-14T02:51:55;8.00;;;3.80;;
56519;SDS011;42420;53.586;10.052;2023-05-14T02:56:51;7.03;;;3.97;;
56519;SDS011;42420;53.586;10.052;2023-05-14T03:01:48;10.40;;;4.28;;
56519;SDS011;42420;53.586;10.052;2023-05-14T03:06:45;6.55;;;3.85;;
56519;SDS011;42420;53.586;10.052;2023-05-14T03:11:41;7.22;;;3.40;;
56519;SDS011;42420;53.586;10.052;2023-05-14T03:16:39;7.93;;;4.00;;
56519;SDS011;42420;53.586;10.052;2023-05-14T03:21:37;10.63;;;4.78;;
56519;SDS011;42420;53.586;10.052;2023-05-14T03:26:34;5.60;;;3.72;;
56519;SDS011;42420;53.586;10.052;2023-05-14T03:31:30;7.75;;;4.43;;
56519;SDS011;42420;53.586;10.052;2023-05-14T03:36:27;6.65;;;4.20;;
56519;SDS011;42420;53.586;10.052;2023-05-14T03:41:23;9.25;;;4.45;;
56519;SDS011;42420;53.586;10.052;2023-05-14T03:46:19;6.55;;;4.18;;
56519;SDS011;42420;53.586;10.052;2023-05-14T03:56:12;7.50;;;4.18;;
56519;SDS011;42420;53.586;10.052;2023-05-14T04:01:09;8.63;;;4.43;;
56519;SDS011;42420;53.586;10.052;2023-05-14T04:06:06;7.93;;;4.40;;
56519;SDS011;42420;53.586;10.052;2023-05-14T04:11:02;10.15;;;4.68;;
56519;SDS011;42420;53.586;10.052;2023-05-14T04:15:58;10.50;;;4.43;;
56519;SDS011;42420;53.586;10.052;2023-05-14T04:25:52;9.98;;;4.50;;
56519;SDS011;42420;53.586;10.052;2023-05-14T04:30:48;7.35;;;4.25;;
56519;SDS011;42420;53.586;10.052;2023-05-14T04:35:45;7.78;;;4.72;;
56519;SDS011;42420;53.586;10.052;2023-05-14T04:45:38;6.75;;;4.30;;
56519;SDS011;42420;53.586;10.052;2023-05-14T04:50:36;7.25;;;4.28;;
56519;SDS011;42420;53.586;10.052;2023-05-14T04:55:32;9.25;;;4.20;;
56519;SDS011;42420;53.586;10.052;2023-05-14T05:05:25;10.32;;;5.18;;
56519;SDS011;42420;53.586;10.052;2023-05-14T05:10:22;7.10;;;4.28;;
56519;SDS011;42420;53.586;10.052;2023-05-14T05:15:19;10.07;;;4.50;;
56519;SDS011;42420;53.586;10.052;2023-05-14T05:25:12;10.60;;;4.50;;
56519;SDS011;42420;53.586;10.052;2023-05-14T05:30:08;8.52;;;4.20;;
56519;SDS011;42420;53.586;10.052;2023-05-14T05:35:05;8.10;;;4.47;;
56519;SDS011;42420;53.586;10.052;2023-05-14T05:40:02;6.40;;;4.15;;
56519;SDS011;42420;53.586;10.052;2023-05-14T05:44:59;7.38;;;4.60;;
56519;SDS011;42420;53.586;10.052;2023-05-14T05:54:52;6.30;;;4.10;;
56519;SDS011;42420;53.586;10.052;2023-05-14T06:04:45;8.88;;;3.70;;
56519;SDS011;42420;53.586;10.052;2023-05-14T06:09:41;6.57;;;3.83;;
56519;SDS011;42420;53.586;10.052;2023-05-14T06:14:38;8.15;;;3.65;;
56519;SDS011;42420;53.586;10.052;2023-05-14T06:19:34;7.63;;;3.70;;
56519;SDS011;42420;53.586;10.052;2023-05-14T06:24:31;5.43;;;2.80;;
56519;SDS011;42420;53.586;10.052;2023-05-14T06:29:28;6.47;;;3.47;;
56519;SDS011;42420;53.586;10.052;2023-05-14T06:34:24;6.50;;;3.13;;
56519;SDS011;42420;53.586;10.052;2023-05-14T06:39:21;5.05;;;2.88;;
56519;SDS011;42420;53.586;10.052;2023-05-14T06:44:17;7.85;;;3.45;;
56519;SDS011;42420;53.586;10.052;2023-05-14T06:49:14;5.95;;;3.05;;
56519;SDS011;42420;53.586;10.052;2023-05-14T06:54:11;5.68;;;2.90;;
56519;SDS011;42420;53.586;10.052;2023-05-14T06:59:07;6.18;;;3.35;;
56519;SDS011;42420;53.586;10.052;2023-05-14T07:04:04;7.05;;;3.20;;
56519;SDS011;42420;53.586;10.052;2023-05-14T07:09:00;6.40;;;2.67;;
56519;SDS011;42420;53.586;10.052;2023-05-14T07:13:57;6.63;;;3.10;;
56519;SDS011;42420;53.586;10.052;2023-05-14T07:18:54;6.43;;;2.78;;
56519;SDS011;42420;53.586;10.052;2023-05-14T07:23:51;4.93;;;2.60;;
56519;SDS011;42420;53.586;10.052;2023-05-14T07:28:47;5.90;;;2.80;;
56519;SDS011;42420;53.586;10.052;2023-05-14T07:33:44;6.15;;;3.00;;
56519;SDS011;42420;53.586;10.052;2023-05-14T07:38:40;6.00;;;2.75;;
56519;SDS011;42420;53.586;10.052;2023-05-14T07:43:36;8.18;;;2.58;;
56519;SDS011;42420;53.586;10.052;2023-05-14T07:48:33;7.35;;;3.08;;
56519;SDS011;42420;53.586;10.052;2023-05-14T07:53:30;5.45;;;2.72;;
56519;SDS011;42420;53.586;10.052;2023-05-14T07:58:27;7.78;;;3.00;;
56519;SDS011;42420;53.586;10.052;2023-05-14T08:03:23;5.78;;;2.53;;
56519;SDS011;42420;53.586;10.052;2023-05-14T08:08:20;5.22;;;2.55;;
56519;SDS011;42420;53.586;10.052;2023-05-14T08:13:17;7.05;;;2.60;;
56519;SDS011;42420;53.586;10.052;2023-05-14T08:18:13;6.03;;;2.20;;
56519;SDS011;42420;53.586;10.052;2023-05-14T08:23:10;4.85;;;2.40;;
56519;SDS011;42420;53.586;10.052;2023-05-14T08:28:06;6.82;;;2.15;;
56519;SDS011;42420;53.586;10.052;2023-05-14T08:33:02;6.05;;;2.15;;
56519;SDS011;42420;53.586;10.052;2023-05-14T08:37:59;7.13;;;2.47;;
56519;SDS011;42420;53.586;10.052;2023-05-14T08:42:56;4.53;;;2.15;;
56519;SDS011;42420;53.586;10.052;2023-05-14T08:47:55;6.90;;;2.22;;
56519;SDS011;42420;53.586;10.052;2023-05-14T08:52:53;6.25;;;2.00;;
56519;SDS011;42420;53.586;10.052;2023-05-14T08:57:50;6.35;;;2.28;;
56519;SDS011;42420;53.586;10.052;2023-05-14T09:02:49;7.07;;;2.35;;
56519;SDS011;42420;53.586;10.052;2023-05-14T09:07:46;7.30;;;2.88;;
56519;SDS011;42420;53.586;10.052;2023-05-14T09:12:42;9.10;;;2.33;;
56519;SDS011;42420;53.586;10.052;2023-05-14T09:17:39;5.43;;;2.00;;
56519;SDS011;42420;53.586;10.052;2023-05-14T09:22:35;6.85;;;2.53;;
56519;SDS011;42420;53.586;10.052;2023-05-14T09:27:32;6.15;;;2.00;;
56519;SDS011;42420;53.586;10.052;2023-05-14T09:32:34;5.65;;;2.08;;
56519;SDS011;42420;53.586;10.052;2023-05-14T09:37:31;5.85;;;2.30;;
56519;SDS011;42420;53.586;10.052;2023-05-14T09:42:38;5.37;;;2.30;;
56519;SDS011;42420;53.586;10.052;2023-05-14T09:47:35;7.55;;;2.30;;
56519;SDS011;42420;53.586;10.052;2023-05-14T09:52:33;4.53;;;2.00;;
56519;SDS011;42420;53.586;10.052;2023-05-14T09:57:29;6.95;;;2.15;;
56519;SDS011;42420;53.586;10.052;2023-05-14T10:02:29;7.38;;;2.28;;
56519;SDS011;42420;53.586;10.052;2023-05-14T10:07:34;6.15;;;2.20;;
56519;SDS011;42420;53.586;10.052;2023-05-14T10:12:45;4.32;;;1.80;;
56519;SDS011;42420;53.586;10.052;2023-05-14T10:17:52;4.07;;;2.00;;
56519;SDS011;42420;53.586;10.052;2023-05-14T10:22:51;5.97;;;2.08;;
56519;SDS011;42420;53.586;10.052;2023-05-14T10:27:50;4.47;;;1.88;;
56519;SDS011;42420;53.586;10.052;2023-05-14T10:32:46;4.75;;;2.10;;
56519;SDS011;42420;53.586;10.052;2023-05-14T10:37:43;5.47;;;2.20;;
56519;SDS011;42420;53.586;10.052;2023-05-14T10:42:41;5.53;;;2.10;;
56519;SDS011;42420;53.586;10.052;2023-05-14T10:47:41;3.80;;;1.90;;
56519;SDS011;42420;53.586;10.052;2023-05-14T10:52:45;4.63;;;2.10;;
56519;SDS011;42420;53.586;10.052;2023-05-14T10:57:41;5.68;;;2.20;;
56519;SDS011;42420;53.586;10.052;2023-05-14T11:02:40;8.60;;;3.22;;
56519;SDS011;42420;53.586;10.052;2023-05-14T11:07:38;6.75;;;2.20;;
56519;SDS011;42420;53.586;10.052;2023-05-14T11:12:36;5.80;;;2.53;;
56519;SDS011;42420;53.586;10.052;2023-05-14T11:17:36;8.82;;;3.15;;
56519;SDS011;42420;53.586;10.052;2023-05-14T11:22:34;8.50;;;2.47;;
56519;SDS011;42420;53.586;10.052;2023-05-14T11:27:32;9.30;;;2.40;;
56519;SDS011;42420;53.586;10.052;2023-05-14T11:32:32;5.82;;;2.53;;
56519;SDS011;42420;53.586;10.052;2023-05-14T11:37:29;5.63;;;2.55;;
56519;SDS011;42420;53.586;10.052;2023-05-14T11:42:26;5.50;;;2.30;;
56519;SDS011;42420;53.586;10.052;2023-05-14T11:47:25;6.43;;;2.63;;
56519;SDS011;42420;53.586;10.052;2023-05-14T11:52:21;5.10;;;2.30;;
56519;SDS011;42420;53.586;10.052;2023-05-14T11:57:18;5.55;;;2.33;;
56519;SDS011;42420;53.586;10.052;2023-05-14T12:02:16;5.75;;;2.08;;
56519;SDS011;42420;53.586;10.052;2023-05-14T12:07:14;6.18;;;2.60;;
56519;SDS011;42420;53.586;10.052;2023-05-14T12:12:15;6.63;;;2.45;;
56519;SDS011;42420;53.586;10.052;2023-05-14T12:17:14;7.32;;;2.65;;
56519;SDS011;42420;53.586;10.052;2023-05-14T12:22:12;5.00;;;2.10;;
56519;SDS011;42420;53.586;10.052;2023-05-14T12:27:10;5.35;;;2.30;;
56519;SDS011;42420;53.586;10.052;2023-05-14T12:32:09;5.93;;;2.60;;
56519;SDS011;42420;53.586;10.052;2023-05-14T12:37:06;5.03;;;2.40;;
56519;SDS011;42420;53.586;10.052;2023-05-14T12:42:02;7.50;;;2.17;;
56519;SDS011;42420;53.586;10.052;2023-05-14T12:46:59;5.78;;;2.10;;
56519;SDS011;42420;53.586;10.052;2023-05-14T12:51:56;9.02;;;2.65;;
56519;SDS011;42420;53.586;10.052;2023-05-14T12:57:12;5.27;;;2.43;;
56519;SDS011;42420;53.586;10.052;2023-05-14T13:02:08;5.78;;;2.22;;
56519;SDS011;42420;53.586;10.052;2023-05-14T13:07:05;4.28;;;2.10;;
56519;SDS011;42420;53.586;10.052;2023-05-14T13:12:04;6.32;;;2.30;;
56519;SDS011;42420;53.586;10.052;2023-05-14T13:17:08;8.02;;;2.58;;
56519;SDS011;42420;53.586;10.052;2023-05-14T13:22:04;7.40;;;2.42;;
56519;SDS011;42420;53.586;10.052;2023-05-14T13:27:01;5.40;;;2.08;;
56519;SDS011;42420;53.586;10.052;2023-05-14T13:31:57;5.45;;;2.28;;
56519;SDS011;42420;53.586;10.052;2023-05-14T13:36:54;4.50;;;2.30;;
56519;SDS011;42420;53.586;10.052;2023-05-14T13:41:51;8.52;;;3.17;;
56519;SDS011;42420;53.586;10.052;2023-05-14T13:46:51;6.13;;;2.67;;
56519;SDS011;42420;53.586;10.052;2023-05-14T13:51:47;7.47;;;2.40;;
56519;SDS011;42420;53.586;10.052;2023-05-14T13:56:44;5.13;;;2.00;;
56519;SDS011;42420;53.586;10.052;2023-05-14T14:01:40;5.13;;;2.10;;
56519;SDS011;42420;53.586;10.052;2023-05-14T14:06:39;4.03;;;1.83;;
56519;SDS011;42420;53.586;10.052;2023-05-14T14:11:39;5.22;;;2.20;;
56519;SDS011;42420;53.586;10.052;2023-05-14T14:16:36;6.00;;;2.10;;
56519;SDS011;42420;53.586;10.052;2023-05-14T14:21:35;6.25;;;2.17;;
56519;SDS011;42420;53.586;10.052;2023-05-14T14:26:34;3.97;;;2.00;;
56519;SDS011;42420;53.586;10.052;2023-05-14T14:31:31;5.38;;;2.33;;
56519;SDS011;42420;53.586;10.052;2023-05-14T14:36:27;5.35;;;2.70;;
56519;SDS011;42420;53.586;10.052;2023-05-14T14:41:25;6.75;;;2.63;;
56519;SDS011;42420;53.586;10.052;2023-05-14T14:46:22;6.40;;;3.13;;
56519;SDS011;42420;53.586;10.052;2023-05-14T14:51:19;6.68;;;2.60;;
56519;SDS011;42420;53.586;10.052;2023-05-14T14:56:18;5.97;;;2.50;;
56519;SDS011;42420;53.586;10.052;2023-05-14T15:01:14;7.30;;;2.50;;
56519;SDS011;42420;53.586;10.052;2023-05-14T15:06:12;5.03;;;2.47;;
56519;SDS011;42420;53.586;10.052;2023-05-14T15:11:13;6.00;;;2.42;;
56519;SDS011;42420;53.586;10.052;2023-05-14T15:16:09;6.05;;;2.35;;
56519;SDS011;42420;53.586;10.052;2023-05-14T15:21:07;6.15;;;2.47;;
56519;SDS011;42420;53.586;10.052;2023-05-14T15:26:05;6.05;;;2.35;;
56519;SDS011;42420;53.586;10.052;2023-05-14T15:31:04;6.32;;;2.50;;
56519;SDS011;42420;53.586;10.052;2023-05-14T15:36:01;6.88;;;2.28;;
56519;SDS011;42420;53.586;10.052;2023-05-14T15:40:58;6.85;;;2.25;;
56519;SDS011;42420;53.586;10.052;2023-05-14T15:45:55;5.85;;;2.40;;
56519;SDS011;42420;53.586;10.052;2023-05-14T15:50:51;6.22;;;2.40;;
56519;SDS011;42420;53.586;10.052;2023-05-14T15:55:48;8.00;;;2.17;;
56519;SDS011;42420;53.586;10.052;2023-05-14T16:00:45;8.43;;;2.40;;
56519;SDS011;42420;53.586;10.052;2023-05-14T16:05:42;4.90;;;2.30;;
56519;SDS011;42420;53.586;10.052;2023-05-14T16:10:39;6.53;;;2.75;;
56519;SDS011;42420;53.586;10.052;2023-05-14T16:15:36;5.43;;;2.30;;
56519;SDS011;42420;53.586;10.052;2023-05-14T16:20:34;4.65;;;2.10;;
56519;SDS011;42420;53.586;10.052;2023-05-14T16:25:31;6.85;;;2.20;;
56519;SDS011;42420;53.586;10.052;2023-05-14T16:30:28;7.55;;;2.40;;
56519;SDS011;42420;53.586;10.052;2023-05-14T16:35:25;5.47;;;2.05;;
56519;SDS011;42420;53.586;10.052;2023-05-14T16:40:22;7.72;;;2.63;;
56519;SDS011;42420;53.586;10.052;2023-05-14T16:45:19;4.78;;;2.40;;
56519;SDS011;42420;53.586;10.052;2023-05-14T16:50:15;5.70;;;2.05;;
56519;SDS011;42420;53.586;10.052;2023-05-14T16:55:12;5.53;;;2.17;;
56519;SDS011;42420;53.586;10.052;2023-05-14T17:00:09;5.53;;;2.15;;
56519;SDS011;42420;53.586;10.052;2023-05-14T17:05:08;4.53;;;2.30;;
56519;SDS011;42420;53.586;10.052;2023-05-14T17:10:05;8.32;;;2.38;;
56519;SDS011;42420;53.586;10.052;2023-05-14T17:15:01;8.50;;;2.42;;
56519;SDS011;42420;53.586;10.052;2023-05-14T17:20:01;5.60;;;2.10;;
56519;SDS011;42420;53.586;10.052;2023-05-14T17:25:00;5.85;;;2.38;;
56519;SDS011;42420;53.586;10.052;2023-05-14T17:29:57;5.05;;;2.38;;
56519;SDS011;42420;53.586;10.052;2023-05-14T17:34:55;4.93;;;2.08;;
56519;SDS011;42420;53.586;10.052;2023-05-14T17:39:52;6.47;;;2.60;;
56519;SDS011;42420;53.586;10.052;2023-05-14T17:44:49;7.03;;;2.17;;
56519;SDS011;42420;53.586;10.052;2023-05-14T17:49:46;5.45;;;2.25;;
56519;SDS011;42420;53.586;10.052;2023-05-14T17:54:42;7.72;;;2.22;;
56519;SDS011;42420;53.586;10.052;2023-05-14T17:59:42;6.10;;;2.13;;
56519;SDS011;42420;53.586;10.052;2023-05-14T18:04:42;5.63;;;2.50;;
56519;SDS011;42420;53.586;10.052;2023-05-14T18:09:39;4.93;;;2.47;;
56519;SDS011;42420;53.586;10.052;2023-05-14T18:14:36;6.25;;;2.83;;
56519;SDS011;42420;53.586;10.052;2023-05-14T18:19:33;5.68;;;2.72;;
56519;SDS011;42420;53.586;10.052;2023-05-14T18:24:29;5.15;;;2.35;;
56519;SDS011;42420;53.586;10.052;2023-05-14T18:29:26;4.97;;;2.30;;
56519;SDS011;42420;53.586;10.052;2023-05-14T18:34:23;5.70;;;2.50;;
56519;SDS011;42420;53.586;10.052;2023-05-14T18:39:20;6.00;;;2.58;;
56519;SDS011;42420;53.586;10.052;2023-05-14T18:44:16;6.80;;;2.70;;
56519;SDS011;42420;53.586;10.052;2023-05-14T18:49:13;7.15;;;2.53;;
56519;SDS011;42420;53.586;10.052;2023-05-14T18:54:13;5.22;;;2.60;;
56519;SDS011;42420;53.586;10.052;2023-05-14T18:59:09;7.07;;;3.47;;
56519;SDS011;42420;53.586;10.052;2023-05-14T19:04:25;6.75;;;3.00;;
56519;SDS011;42420;53.586;10.052;2023-05-14T19:09:21;4.60;;;2.33;;
56519;SDS011;42420;53.586;10.052;2023-05-14T19:14:20;6.57;;;3.40;;
56519;SDS011;42420;53.586;10.052;2023-05-14T19:19:20;7.13;;;2.92;;
56519;SDS011;42420;53.586;10.052;2023-05-14T19:24:17;6.55;;;2.60;;
56519;SDS011;42420;53.586;10.052;2023-05-14T19:29:13;6.07;;;2.75;;
56519;SDS011;42420;53.586;10.052;2023-05-14T19:34:10;5.25;;;2.88;;
56519;SDS011;42420;53.586;10.052;2023-05-14T19:39:07;6.75;;;2.90;;
56519;SDS011;42420;53.586;10.052;2023-05-14T19:44:03;8.50;;;3.03;;
56519;SDS011;42420;53.586;10.052;2023-05-14T19:49:00;8.90;;;3.35;;
56519;SDS011;42420;53.586;10.052;2023-05-14T19:54:00;7.88;;;3.13;;
56519;SDS011;42420;53.586;10.052;2023-05-14T19:58:56;8.02;;;3.22;;
56519;SDS011;42420;53.586;10.052;2023-05-14T20:03:53;8.23;;;3.15;;
56519;SDS011;42420;53.586;10.052;2023-05-14T20:08:51;8.15;;;3.13;;
56519;SDS011;42420;53.586;10.052;2023-05-14T20:13:50;8.90;;;3.20;;
56519;SDS011;42420;53.586;10.052;2023-05-14T20:18:47;8.27;;;3.10;;
56519;SDS011;42420;53.586;10.052;2023-05-14T20:23:45;7.57;;;2.92;;
56519;SDS011;42420;53.586;10.052;2023-05-14T20:28:41;6.60;;;3.22;;
56519;SDS011;42420;53.586;10.052;2023-05-14T20:33:38;7.90;;;3.35;;
56519;SDS011;42420;53.586;10.052;2023-05-14T20:38:35;7.38;;;3.67;;
56519;SDS011;42420;53.586;10.052;2023-05-14T20:43:32;9.27;;;3.80;;
56519;SDS011;42420;53.586;10.052;2023-05-14T20:48:28;6.72;;;3.40;;
56519;SDS011;42420;53.586;10.052;2023-05-14T20:53:25;6.85;;;3.30;;
56519;SDS011;42420;53.586;10.052;2023-05-14T20:58:23;7.78;;;3.35;;
56519;SDS011;42420;53.586;10.052;2023-05-14T21:03:23;6.93;;;3.60;;
56519;SDS011;42420;53.586;10.052;2023-05-14T21:08:20;10.05;;;5.25;;
56519;SDS011;42420;53.586;10.052;2023-05-14T21:13:16;9.20;;;3.83;;
56519;SDS011;42420;53.586;10.052;2023-05-14T21:18:13;7.53;;;3.63;;
56519;SDS011;42420;53.586;10.052;2023-05-14T21:23:09;6.63;;;3.70;;
56519;SDS011;42420;53.586;10.052;2023-05-14T21:28:06;8.07;;;4.45;;
56519;SDS011;42420;53.586;10.052;2023-05-14T21:33:02;8.68;;;4.22;;
56519;SDS011;42420;53.586;10.052;2023-05-14T21:37:59;8.38;;;4.00;;
56519;SDS011;42420;53.586;10.052;2023-05-14T21:47:52;8.30;;;4.43;;
56519;SDS011;42420;53.586;10.052;2023-05-14T21:52:48;11.10;;;4.32;;
56519;SDS011;42420;53.586;10.052;2023-05-14T21:57:45;8.75;;;4.35;;
56519;SDS011;42420;53.586;10.052;2023-05-14T22:07:38;8.98;;;3.90;;
56519;SDS011;42420;53.586;10.052;2023-05-14T22:12:34;9.57;;;4.05;;
56519;SDS011;42420;53.586;10.052;2023-05-14T22:22:35;7.18;;;3.55;;
56519;SDS011;42420;53.586;10.052;2023-05-14T22:27:32;8.57;;;3.63;;
56519;SDS011;42420;53.586;10.052;2023-05-14T22:32:28;8.98;;;3.90;;
56519;SDS011;42420;53.586;10.052;2023-05-14T22:37:25;8.68;;;4.18;;
56519;SDS011;42420;53.586;10.052;2023-05-14T22:47:20;7.85;;;4.03;;
56519;SDS011;42420;53.586;10.052;2023-05-14T22:52:16;9.27;;;4.30;;
56519;SDS011;42420;53.586;10.052;2023-05-14T22:57:13;8.68;;;3.95;;
56519;SDS011;42420;53.586;10.052;2023-05-14T23:07:06;8.75;;;4.25;;
56519;SDS011;42420;53.586;10.052;2023-05-14T23:16:59;9.70;;;4.97;;
56519;SDS011;42420;53.586;10.052;2023-05-14T23:26:53;11.90;;;5.30;;
56519;SDS011;42420;53.586;10.052;2023-05-14T23:36:46;10.23;;;5.00;;
56519;SDS011;42420;53.586;10.052;2023-05-14T23:46:39;9.52;;;4.80;;
56519;SDS011;42420;53.586;10.052;2023-05-14T23:51:37;7.95;;;4.80;;
